createdAt,value
2017-08-25T00:01:20.684Z,18.40
2017-08-25T00:03:48.133Z,18.30
2017-08-25T00:06:15.589Z,18.30
2017-08-25T00:08:43.040Z,18.20
2017-08-25T00:11:10.488Z,18.20
2017-08-25T00:13:37.940Z,18.20
2017-08-25T00:16:05.388Z,18.10
2017-08-25T00:18:32.841Z,18.20
2017-08-25T00:21:00.284Z,18.20
2017-08-25T00:23:27.739Z,18.20
2017-08-25T00:25:55.202Z,18.20
2017-08-25T00:28:22.649Z,18.10
2017-08-25T00:30:50.105Z,18.00
2017-08-25T00:33:17.545Z,18.00
2017-08-25T00:35:44.999Z,18.00
2017-08-25T00:38:12.444Z,17.90
2017-08-25T00:40:39.902Z,17.80
2017-08-25T00:43:07.360Z,17.60
2017-08-25T00:45:34.812Z,17.60
2017-08-25T00:48:02.264Z,17.50
2017-08-25T00:50:29.717Z,17.40
2017-08-25T00:52:57.168Z,17.40
2017-08-25T00:55:24.624Z,17.30
2017-08-25T00:57:52.065Z,17.30
2017-08-25T01:00:19.521Z,17.30
2017-08-25T01:02:46.977Z,17.30
2017-08-25T01:05:14.429Z,17.30
2017-08-25T01:07:45.060Z,17.40
2017-08-25T01:10:12.513Z,17.40
2017-08-25T01:12:39.981Z,17.50
2017-08-25T01:15:07.422Z,17.50
2017-08-25T01:17:34.885Z,17.50
2017-08-25T01:20:02.349Z,17.40
2017-08-25T01:22:29.811Z,17.40
2017-08-25T01:24:57.255Z,17.40
2017-08-25T01:27:24.705Z,17.40
2017-08-25T01:29:53.253Z,17.40
2017-08-25T01:32:20.705Z,17.40
2017-08-25T01:34:48.161Z,17.30
2017-08-25T01:37:15.613Z,17.40
2017-08-25T01:39:43.060Z,17.30
2017-08-25T01:42:10.517Z,17.30
2017-08-25T01:44:37.965Z,17.30
2017-08-25T01:47:05.416Z,17.30
2017-08-25T01:49:32.878Z,17.30
2017-08-25T01:52:00.345Z,17.30
2017-08-25T01:54:27.804Z,17.30
2017-08-25T01:56:55.247Z,17.20
2017-08-25T01:59:22.700Z,17.20
2017-08-25T02:01:50.165Z,17.20
2017-08-25T02:04:17.620Z,17.10
2017-08-25T02:06:45.077Z,17.00
2017-08-25T02:09:12.545Z,16.90
2017-08-25T02:11:40.007Z,16.80
2017-08-25T02:14:07.446Z,16.70
2017-08-25T02:16:34.898Z,16.70
2017-08-25T02:19:02.358Z,16.60
2017-08-25T02:21:49.708Z,16.70
2017-08-25T02:24:17.155Z,16.70
2017-08-25T02:26:44.609Z,16.80
2017-08-25T02:29:12.052Z,16.70
2017-08-25T02:31:39.533Z,16.70
2017-08-25T02:34:06.972Z,16.60
2017-08-25T02:36:34.404Z,16.40
2017-08-25T02:39:01.846Z,16.40
2017-08-25T02:41:29.278Z,16.30
2017-08-25T02:43:56.726Z,16.40
2017-08-25T02:46:24.166Z,16.30
2017-08-25T02:48:51.603Z,16.40
2017-08-25T02:51:19.057Z,16.40
2017-08-25T02:53:46.514Z,16.40
2017-08-25T02:56:13.962Z,16.50
2017-08-25T02:58:41.409Z,16.50
2017-08-25T03:01:08.880Z,16.50
2017-08-25T03:03:36.324Z,16.50
2017-08-25T03:06:03.773Z,16.40
2017-08-25T03:08:31.229Z,16.40
2017-08-25T03:10:58.692Z,16.40
2017-08-25T03:13:26.156Z,16.30
2017-08-25T03:15:53.600Z,16.20
2017-08-25T03:18:21.064Z,16.10
2017-08-25T03:20:48.573Z,16.10
2017-08-25T03:23:16.089Z,16.10
2017-08-25T03:25:43.544Z,16.10
2017-08-25T03:28:11.009Z,16.10
2017-08-25T03:30:38.463Z,16.10
2017-08-25T03:33:05.934Z,16.10
2017-08-25T03:35:33.556Z,16.10
2017-08-25T03:38:01.010Z,16.20
2017-08-25T03:40:29.912Z,16.10
2017-08-25T03:42:57.357Z,16.20
2017-08-25T03:45:24.791Z,16.10
2017-08-25T03:47:52.245Z,16.00
2017-08-25T03:50:19.697Z,16.00
2017-08-25T03:52:47.162Z,16.00
2017-08-25T03:55:14.617Z,16.00
2017-08-25T03:57:42.076Z,16.00
2017-08-25T04:00:09.528Z,15.90
2017-08-25T04:02:37.043Z,16.00
2017-08-25T04:05:04.501Z,15.90
2017-08-25T04:07:31.952Z,15.90
2017-08-25T04:09:59.465Z,15.90
2017-08-25T04:12:26.924Z,15.90
2017-08-25T04:14:54.530Z,15.90
2017-08-25T04:17:21.977Z,16.00
2017-08-25T04:19:49.625Z,15.90
2017-08-25T04:22:17.083Z,15.90
2017-08-25T04:24:44.540Z,15.80
2017-08-25T04:27:12.004Z,15.80
2017-08-25T04:29:39.453Z,15.80
2017-08-25T04:32:06.897Z,15.70
2017-08-25T04:34:34.350Z,15.60
2017-08-25T04:37:01.801Z,15.50
2017-08-25T04:39:29.263Z,15.40
2017-08-25T04:41:56.709Z,15.50
2017-08-25T04:44:24.169Z,15.60
2017-08-25T04:46:51.623Z,15.70
2017-08-25T04:49:19.064Z,15.60
2017-08-25T04:51:46.516Z,15.60
2017-08-25T04:54:13.966Z,15.60
2017-08-25T04:56:41.432Z,15.60
2017-08-25T04:59:08.876Z,15.60
2017-08-25T05:01:36.336Z,15.70
2017-08-25T05:04:03.788Z,15.70
2017-08-25T05:06:31.236Z,15.70
2017-08-25T05:08:58.693Z,15.70
2017-08-25T05:11:26.146Z,15.70
2017-08-25T05:13:53.596Z,15.70
2017-08-25T05:16:21.051Z,15.60
2017-08-25T05:18:48.528Z,15.70
2017-08-25T05:21:15.981Z,15.60
2017-08-25T05:23:43.446Z,15.60
2017-08-25T05:26:10.889Z,15.60
2017-08-25T05:28:38.345Z,15.60
2017-08-25T05:31:05.805Z,15.70
2017-08-25T05:33:34.009Z,15.70
2017-08-25T05:36:01.488Z,15.80
2017-08-25T05:38:28.952Z,15.80
2017-08-25T05:40:56.400Z,15.80
2017-08-25T05:43:24.529Z,15.80
2017-08-25T05:45:52.789Z,15.70
2017-08-25T05:48:20.241Z,15.60
2017-08-25T05:50:47.698Z,15.60
2017-08-25T05:53:15.148Z,15.60
2017-08-25T05:55:42.594Z,15.60
2017-08-25T05:58:10.031Z,15.60
2017-08-25T06:00:37.489Z,15.70
2017-08-25T06:03:04.937Z,15.60
2017-08-25T06:05:32.478Z,15.70
2017-08-25T06:07:59.928Z,15.70
2017-08-25T06:10:27.380Z,15.70
2017-08-25T06:12:54.837Z,15.70
2017-08-25T06:15:22.296Z,15.70
2017-08-25T06:17:49.780Z,15.70
2017-08-25T06:20:17.956Z,15.80
2017-08-25T06:22:45.417Z,15.80
2017-08-25T06:25:12.864Z,15.90
2017-08-25T06:27:40.317Z,15.90
2017-08-25T06:30:07.765Z,16.00
2017-08-25T06:32:35.221Z,16.00
2017-08-25T06:35:02.681Z,15.90
2017-08-25T06:37:30.144Z,15.90
2017-08-25T06:39:57.597Z,15.80
2017-08-25T06:42:25.045Z,15.70
2017-08-25T06:44:52.592Z,15.70
2017-08-25T06:47:20.657Z,15.70
2017-08-25T06:49:48.116Z,15.70
2017-08-25T06:52:16.241Z,15.80
2017-08-25T06:54:44.461Z,15.90
2017-08-25T06:57:11.950Z,15.90
2017-08-25T06:59:39.409Z,15.90
2017-08-25T07:02:06.865Z,16.00
2017-08-25T07:04:34.336Z,16.00
2017-08-25T07:07:01.793Z,16.10
2017-08-25T07:09:29.239Z,16.10
2017-08-25T07:11:56.695Z,16.20
2017-08-25T07:14:24.741Z,16.20
2017-08-25T07:16:52.272Z,16.30
2017-08-25T07:19:20.529Z,16.30
2017-08-25T07:21:48.348Z,16.40
2017-08-25T07:24:15.813Z,16.40
2017-08-25T07:26:43.972Z,16.40
2017-08-25T07:29:11.433Z,16.50
2017-08-25T07:31:38.993Z,16.50
2017-08-25T07:34:06.452Z,16.50
2017-08-25T07:36:33.912Z,16.60
2017-08-25T07:39:01.480Z,16.60
2017-08-25T07:41:28.933Z,16.70
2017-08-25T07:43:57.980Z,16.70
2017-08-25T07:46:25.507Z,16.80
2017-08-25T07:48:52.951Z,16.80
2017-08-25T07:51:20.409Z,16.80
2017-08-25T07:53:47.869Z,16.90
2017-08-25T07:56:15.330Z,16.90
2017-08-25T07:58:42.797Z,17.00
2017-08-25T08:01:10.281Z,17.10
2017-08-25T08:03:37.743Z,17.10
2017-08-25T08:06:05.197Z,17.20
2017-08-25T08:08:32.665Z,17.20
2017-08-25T08:11:00.102Z,17.30
2017-08-25T08:13:27.561Z,17.30
2017-08-25T08:15:55.030Z,17.30
2017-08-25T08:18:22.478Z,17.40
2017-08-25T08:20:49.941Z,17.40
2017-08-25T08:23:17.391Z,17.50
2017-08-25T08:25:44.866Z,17.60
2017-08-25T08:28:12.325Z,17.60
2017-08-25T08:30:39.777Z,17.70
2017-08-25T08:33:07.316Z,17.80
2017-08-25T08:35:34.762Z,17.80
2017-08-25T08:38:02.217Z,17.80
2017-08-25T08:40:29.673Z,17.90
2017-08-25T08:42:57.144Z,18.00
2017-08-25T08:45:24.584Z,18.10
2017-08-25T08:47:52.525Z,18.20
2017-08-25T08:50:19.985Z,18.30
2017-08-25T08:52:47.429Z,18.30
2017-08-25T08:55:14.889Z,18.40
2017-08-25T08:57:42.354Z,18.50
2017-08-25T09:00:09.814Z,18.60
2017-08-25T09:02:37.268Z,18.70
2017-08-25T09:05:04.720Z,18.80
2017-08-25T09:07:32.177Z,18.80
2017-08-25T09:09:59.620Z,18.90
2017-08-25T09:12:27.080Z,19.00
2017-08-25T09:14:54.541Z,19.20
2017-08-25T09:17:22.002Z,19.20
2017-08-25T09:19:49.464Z,19.30
2017-08-25T09:22:16.920Z,19.40
2017-08-25T09:24:44.381Z,19.40
2017-08-25T09:27:11.837Z,19.50
2017-08-25T09:29:39.298Z,19.50
2017-08-25T09:32:12.694Z,19.60
2017-08-25T09:34:40.138Z,19.60
2017-08-25T09:37:07.598Z,19.60
2017-08-25T09:39:35.053Z,19.60
2017-08-25T09:42:02.505Z,19.70
2017-08-25T09:44:29.959Z,19.80
2017-08-25T09:46:57.417Z,19.90
2017-08-25T09:49:24.877Z,19.90
2017-08-25T09:51:52.328Z,20.00
2017-08-25T09:54:19.788Z,20.10
2017-08-25T09:56:47.240Z,20.30
2017-08-25T09:59:14.684Z,20.40
2017-08-25T10:01:42.149Z,20.50
2017-08-25T10:04:09.605Z,20.50
2017-08-25T10:06:37.056Z,20.60
2017-08-25T10:09:04.509Z,20.70
2017-08-25T10:11:31.961Z,20.80
2017-08-25T10:14:00.233Z,20.80
2017-08-25T10:16:27.683Z,21.00
2017-08-25T10:18:55.140Z,21.00
2017-08-25T10:21:22.588Z,21.10
2017-08-25T10:23:50.050Z,21.20
2017-08-25T10:26:17.510Z,21.30
2017-08-25T10:28:44.978Z,21.50
2017-08-25T10:31:12.441Z,21.50
2017-08-25T10:33:42.843Z,21.50
2017-08-25T10:36:22.816Z,21.60
2017-08-25T10:39:02.256Z,21.60
2017-08-25T10:41:41.707Z,21.60
2017-08-25T10:44:20.989Z,21.80
2017-08-25T10:46:48.441Z,21.90
2017-08-25T10:49:15.887Z,22.10
2017-08-25T10:51:43.345Z,22.30
2017-08-25T10:54:10.800Z,22.30
2017-08-25T10:56:38.825Z,22.40
2017-08-25T10:59:06.285Z,22.40
2017-08-25T11:01:33.737Z,22.50
2017-08-25T11:04:01.186Z,22.60
2017-08-25T11:06:28.644Z,22.80
2017-08-25T11:08:56.113Z,22.90
2017-08-25T11:11:23.579Z,23.00
2017-08-25T11:13:51.020Z,23.30
2017-08-25T11:16:18.473Z,23.40
2017-08-25T11:18:45.933Z,23.40
2017-08-25T11:21:13.385Z,23.40
2017-08-25T11:23:40.841Z,23.50
2017-08-25T11:26:08.317Z,23.60
2017-08-25T11:28:35.776Z,23.70
2017-08-25T11:31:03.232Z,23.70
2017-08-25T11:33:30.686Z,23.80
2017-08-25T11:35:58.149Z,23.80
2017-08-25T11:38:25.610Z,23.90
2017-08-25T11:40:53.073Z,24.10
2017-08-25T11:43:20.536Z,24.10
2017-08-25T11:45:47.986Z,24.10
2017-08-25T11:48:15.445Z,24.00
2017-08-25T11:50:42.892Z,24.10
2017-08-25T11:53:10.341Z,24.10
2017-08-25T11:55:37.805Z,24.20
2017-08-25T11:58:05.261Z,24.30
2017-08-25T12:00:32.725Z,24.40
2017-08-25T12:03:00.177Z,24.60
2017-08-25T12:05:27.643Z,24.60
2017-08-25T12:07:55.097Z,24.60
2017-08-25T12:10:22.540Z,24.60
2017-08-25T12:12:50.009Z,24.70
2017-08-25T12:15:17.465Z,24.60
2017-08-25T12:17:45.012Z,24.70
2017-08-25T12:20:12.456Z,24.80
2017-08-25T12:22:39.914Z,24.80
2017-08-25T12:25:07.373Z,24.70
2017-08-25T12:27:34.827Z,24.70
2017-08-25T12:30:03.057Z,24.60
2017-08-25T12:32:30.496Z,24.60
2017-08-25T12:34:57.957Z,24.50
2017-08-25T12:37:25.413Z,24.50
2017-08-25T12:39:52.871Z,24.50
2017-08-25T12:42:20.337Z,24.50
2017-08-25T12:44:47.780Z,24.50
2017-08-25T12:47:15.244Z,24.50
2017-08-25T12:49:42.700Z,24.50
2017-08-25T12:52:10.164Z,24.50
2017-08-25T12:54:37.621Z,24.50
2017-08-25T12:57:05.076Z,24.50
2017-08-25T12:59:32.533Z,24.50
2017-08-25T13:01:59.972Z,24.50
2017-08-25T13:04:27.428Z,24.40
2017-08-25T13:06:54.890Z,24.40
2017-08-25T13:09:22.345Z,24.30
2017-08-25T13:11:49.793Z,24.30
2017-08-25T13:14:17.252Z,24.20
2017-08-25T13:16:44.697Z,24.20
2017-08-25T13:19:12.166Z,24.20
2017-08-25T13:21:39.621Z,24.30
2017-08-25T13:24:07.077Z,24.30
2017-08-25T13:26:34.532Z,24.30
2017-08-25T13:29:01.980Z,24.30
2017-08-25T13:31:29.452Z,24.30
2017-08-25T13:33:56.896Z,24.30
2017-08-25T13:36:24.416Z,24.30
2017-08-25T13:38:51.864Z,24.30
2017-08-25T13:41:19.316Z,24.30
2017-08-25T13:43:46.774Z,24.30
2017-08-25T13:46:14.233Z,24.30
2017-08-25T13:48:41.684Z,24.30
2017-08-25T13:51:09.137Z,24.30
2017-08-25T13:53:36.597Z,24.30
2017-08-25T13:56:04.032Z,24.30
2017-08-25T13:58:31.496Z,24.30
2017-08-25T14:00:58.961Z,24.30
2017-08-25T14:03:26.446Z,24.20
2017-08-25T14:05:53.887Z,24.20
2017-08-25T14:08:21.337Z,24.30
2017-08-25T14:10:48.776Z,24.20
2017-08-25T14:13:16.579Z,24.30
2017-08-25T14:15:44.038Z,24.30
2017-08-25T14:18:11.497Z,24.30
2017-08-25T14:20:38.964Z,24.20
2017-08-25T14:23:06.405Z,24.20
2017-08-25T14:25:33.848Z,24.20
2017-08-25T14:28:01.318Z,24.20
2017-08-25T14:30:28.769Z,24.20
2017-08-25T14:32:56.475Z,24.20
2017-08-25T14:35:23.905Z,24.10
2017-08-25T14:37:51.354Z,24.10
2017-08-25T14:40:18.813Z,24.10
2017-08-25T14:42:46.262Z,24.10
2017-08-25T14:45:13.717Z,24.00
2017-08-25T14:47:41.192Z,24.00
2017-08-25T14:50:08.681Z,24.00
2017-08-25T14:52:36.132Z,24.00
2017-08-25T14:55:03.580Z,24.00
2017-08-25T14:57:31.036Z,24.00
2017-08-25T14:59:58.518Z,23.90
2017-08-25T15:02:25.977Z,23.90
2017-08-25T15:04:53.434Z,23.90
2017-08-25T15:07:20.887Z,23.90
2017-08-25T15:09:48.346Z,23.90
2017-08-25T15:12:15.799Z,23.90
2017-08-25T15:14:43.257Z,23.90
2017-08-25T15:17:10.717Z,23.90
2017-08-25T15:19:38.181Z,23.90
2017-08-25T15:22:05.645Z,23.90
2017-08-25T15:24:33.106Z,23.90
2017-08-25T15:27:00.556Z,23.90
2017-08-25T15:29:28.777Z,23.90
2017-08-25T15:31:56.245Z,23.90
2017-08-25T15:34:23.684Z,23.90
2017-08-25T15:36:51.137Z,23.90
2017-08-25T15:39:18.639Z,23.90
2017-08-25T15:41:46.094Z,23.90
2017-08-25T15:44:14.833Z,23.90
2017-08-25T15:46:42.288Z,23.80
2017-08-25T15:49:09.753Z,23.80
2017-08-25T15:51:37.197Z,23.80
2017-08-25T15:54:04.653Z,23.80
2017-08-25T15:56:32.108Z,23.80
2017-08-25T15:58:59.568Z,23.80
2017-08-25T16:01:27.025Z,23.80
2017-08-25T16:03:54.469Z,23.80
2017-08-25T16:06:21.923Z,23.80
2017-08-25T16:08:49.375Z,23.80
2017-08-25T16:11:16.830Z,23.80
2017-08-25T16:13:44.283Z,23.80
2017-08-25T16:16:11.741Z,23.70
2017-08-25T16:18:39.196Z,23.70
2017-08-25T16:21:06.657Z,23.70
2017-08-25T16:23:34.113Z,23.70
2017-08-25T16:26:01.569Z,23.70
2017-08-25T16:28:29.027Z,23.70
2017-08-25T16:30:56.473Z,23.70
2017-08-25T16:33:23.925Z,23.60
2017-08-25T16:35:51.392Z,23.60
2017-08-25T16:38:18.841Z,23.60
2017-08-25T16:40:46.298Z,23.60
2017-08-25T16:43:13.741Z,23.50
2017-08-25T16:45:41.205Z,23.50
2017-08-25T16:48:08.661Z,23.50
2017-08-25T16:50:36.126Z,23.50
2017-08-25T16:53:03.581Z,23.40
2017-08-25T16:55:31.041Z,23.40
2017-08-25T16:57:58.498Z,23.40
2017-08-25T17:00:25.958Z,23.40
2017-08-25T17:02:53.404Z,23.40
2017-08-25T17:05:20.853Z,23.40
2017-08-25T17:07:48.309Z,23.30
2017-08-25T17:10:15.765Z,23.30
2017-08-25T17:12:43.220Z,23.30
2017-08-25T17:15:10.676Z,23.30
2017-08-25T17:17:38.133Z,23.30
2017-08-25T17:20:05.593Z,23.30
2017-08-25T17:22:33.065Z,23.20
2017-08-25T17:25:00.516Z,23.20
2017-08-25T17:27:27.968Z,23.10
2017-08-25T17:29:55.432Z,23.00
2017-08-25T17:32:22.888Z,23.00
2017-08-25T17:34:50.345Z,22.90
2017-08-25T17:37:17.809Z,22.90
2017-08-25T17:39:45.269Z,22.90
2017-08-25T17:42:12.733Z,22.90
2017-08-25T17:44:40.185Z,22.90
2017-08-25T17:47:07.644Z,22.90
2017-08-25T17:49:35.093Z,22.90
2017-08-25T17:52:02.544Z,22.90
2017-08-25T17:54:29.992Z,22.90
2017-08-25T17:56:57.446Z,22.90
2017-08-25T17:59:24.900Z,22.90
2017-08-25T18:01:52.363Z,22.90
2017-08-25T18:04:19.821Z,22.80
2017-08-25T18:06:47.280Z,22.80
2017-08-25T18:09:14.746Z,22.80
2017-08-25T18:11:42.210Z,22.80
2017-08-25T18:14:09.665Z,22.80
2017-08-25T18:16:37.125Z,22.70
2017-08-25T18:19:04.576Z,22.70
2017-08-25T18:21:32.037Z,22.70
2017-08-25T18:23:59.497Z,22.70
2017-08-25T18:26:26.956Z,22.70
2017-08-25T18:28:54.432Z,22.60
2017-08-25T18:31:21.881Z,22.60
2017-08-25T18:33:49.336Z,22.60
2017-08-25T18:36:16.782Z,22.60
2017-08-25T18:38:44.242Z,22.50
2017-08-25T18:41:11.705Z,22.50
2017-08-25T18:43:39.179Z,22.50
2017-08-25T18:46:06.630Z,22.50
2017-08-25T18:48:34.089Z,22.40
2017-08-25T19:36:53.569Z,22.40
2017-08-25T19:39:21.032Z,21.50
2017-08-25T19:41:48.525Z,21.50
2017-08-25T19:44:15.993Z,21.50
2017-08-25T19:46:43.442Z,21.50
2017-08-25T19:49:10.888Z,21.50
2017-08-25T19:51:38.348Z,21.50
2017-08-25T19:54:05.787Z,21.50
2017-08-25T19:56:33.407Z,21.40
2017-08-25T19:59:00.856Z,21.30
2017-08-25T20:01:28.331Z,21.30
2017-08-25T20:03:55.761Z,21.20
2017-08-25T20:06:23.214Z,21.10
2017-08-25T20:08:50.677Z,21.00
2017-08-25T20:11:18.137Z,21.00
2017-08-25T20:13:45.589Z,21.00
2017-08-25T20:16:13.039Z,21.00
2017-08-25T20:18:40.499Z,21.10
2017-08-25T20:21:08.001Z,21.10
2017-08-25T20:23:35.444Z,21.10
2017-08-25T20:26:02.901Z,21.10
2017-08-25T20:28:30.340Z,21.10
2017-08-25T20:30:57.800Z,21.20
2017-08-25T20:33:25.265Z,21.10
2017-08-25T20:35:52.730Z,21.10
2017-08-25T20:38:20.176Z,21.10
2017-08-25T20:40:47.898Z,21.10
2017-08-25T20:43:15.351Z,21.10
2017-08-25T20:45:42.797Z,21.10
2017-08-25T20:48:10.254Z,21.10
2017-08-25T20:50:37.698Z,21.10
2017-08-25T20:53:05.161Z,21.10
2017-08-25T20:55:32.688Z,20.90
2017-08-25T20:58:00.129Z,20.90
2017-08-25T21:00:27.580Z,20.80
2017-08-25T21:02:55.041Z,20.90
2017-08-25T21:05:22.486Z,20.90
2017-08-25T21:07:49.927Z,20.90
2017-08-25T21:10:17.401Z,20.90
2017-08-25T21:12:44.862Z,21.00
2017-08-25T21:15:12.301Z,21.00
2017-08-25T21:17:39.753Z,21.00
2017-08-25T21:20:07.200Z,21.00
2017-08-25T21:22:34.653Z,21.00
2017-08-25T21:25:02.105Z,20.90
2017-08-25T21:27:29.560Z,20.80
2017-08-25T21:29:57.017Z,20.80
2017-08-25T21:32:24.473Z,20.70
2017-08-25T21:34:52.548Z,20.60
2017-08-25T21:37:20.013Z,20.60
2017-08-25T21:39:47.468Z,20.60
2017-08-25T21:42:14.925Z,20.70
2017-08-25T21:44:42.373Z,20.70
2017-08-25T21:47:09.829Z,20.70
2017-08-25T21:49:37.280Z,20.70
2017-08-25T21:52:04.740Z,20.70
2017-08-25T21:54:32.204Z,20.80
2017-08-25T21:56:59.662Z,20.80
2017-08-25T21:59:27.212Z,20.80
2017-08-25T22:01:54.744Z,20.80
2017-08-25T22:04:22.367Z,20.90
2017-08-25T22:06:49.856Z,20.80
2017-08-25T22:09:17.305Z,20.80
2017-08-25T22:11:45.321Z,20.80
2017-08-25T22:14:12.789Z,20.90
2017-08-25T22:16:40.257Z,20.90
2017-08-25T22:19:08.332Z,20.80
2017-08-25T22:21:35.789Z,20.80
2017-08-25T22:24:03.321Z,20.80
2017-08-25T22:26:30.750Z,20.80
2017-08-25T22:28:58.213Z,20.80
2017-08-25T22:31:25.661Z,20.80
2017-08-25T22:33:53.116Z,20.80
2017-08-25T22:36:21.376Z,20.90
2017-08-25T22:38:48.812Z,20.90
2017-08-25T22:41:16.284Z,20.80
2017-08-25T22:43:43.750Z,20.80
2017-08-25T22:46:11.199Z,20.90
2017-08-25T22:48:38.652Z,20.80
2017-08-25T22:51:06.118Z,20.80
2017-08-25T22:53:33.581Z,20.80
2017-08-25T22:56:01.048Z,20.90
2017-08-25T22:58:28.509Z,20.90
2017-08-25T23:00:56.105Z,20.80
2017-08-25T23:03:23.568Z,20.90
2017-08-25T23:05:51.936Z,20.80
2017-08-25T23:08:19.485Z,20.80
2017-08-25T23:10:46.936Z,20.90
2017-08-25T23:13:14.392Z,20.80
2017-08-25T23:15:41.849Z,20.80
2017-08-25T23:18:09.292Z,20.80
2017-08-25T23:20:36.753Z,20.70
2017-08-25T23:23:04.209Z,20.70
2017-08-25T23:25:33.118Z,20.60
2017-08-25T23:28:01.320Z,20.60
2017-08-25T23:30:28.777Z,20.60
2017-08-25T23:32:56.265Z,20.60
2017-08-25T23:35:23.738Z,20.60
2017-08-25T23:37:51.188Z,20.60
2017-08-25T23:40:18.637Z,20.60
2017-08-25T23:42:46.113Z,20.60
2017-08-25T23:45:13.565Z,20.60
2017-08-25T23:47:41.019Z,20.60
2017-08-25T23:50:08.483Z,20.60
2017-08-25T23:52:35.938Z,20.60
2017-08-25T23:55:03.400Z,20.60
2017-08-25T23:57:30.849Z,20.60
2017-08-25T23:59:59.145Z,20.60
